aviador You're here:

OIKB Decoded Metar

BANDAR ABBAS in IRAN
Report Time2017-08-19 19:50:00
UTC Time2017-08-19 20:21:02
Flight Rules ifr IFR
Wind020° at 04 kt
W.Decomp.*RWY 03: 3.9 kt HW 0.8 kt LCW
W.Rank020° ranks 10
Current wind is below 020° avg. (5.3)
Visibility4000 m
Phenomena:Haze
Clouds:Few 030 Hf
Expected CloudBase > 2,000 ft AGL from Temp-Dew spread
CeilingNone
Temp33°C (ISA +18)
Dew Point28°C (75% RH)
Heat Index45.7°C
QNH1001 hPa
Density Alt2,989 ft
Elevation33 ft
Report Wrong Elevation
Raw Report
METAR OIKB 191950Z 02004KT 4000 HZ FEW030 33/28 Q1001 A2958=

Extra information for OIKB:More info

Metar Taf Metar & Taf Last 4 Metars F.Rules Stats Wind Profile Meteogram Temp Stats Airport Information Weather charts Add Link Nearby VenuesMetar ALERT Operation Metar Decoded Social comments